TimePDT,TemperatureF,Dew PointF,Humidity,Sea Level PressureIn,VisibilityMPH,Wind Direction,Wind SpeedMPH,Gust SpeedMPH,PrecipitationIn,Events,Conditions,WindDirDegrees,DateUTC
12:53 AM,55.0,30.9,40,30.01,10.0,Calm,Calm,-,N/A,,Clear,0,2013-10-16 07:53:00
1:53 AM,50.0,30.0,46,30.02,10.0,East,4.6,-,N/A,,Clear,80,2013-10-16 08:53:00
2:53 AM,51.1,30.9,46,30.03,10.0,Calm,Calm,-,N/A,,Clear,0,2013-10-16 09:53:00
3:53 AM,51.1,30.9,46,30.03,10.0,Calm,Calm,-,N/A,,Clear,0,2013-10-16 10:53:00
4:53 AM,50.0,32.0,50,30.04,10.0,Calm,Calm,-,N/A,,Clear,0,2013-10-16 11:53:00
5:53 AM,48.0,30.9,52,30.05,10.0,Calm,Calm,-,N/A,,Clear,0,2013-10-16 12:53:00
6:53 AM,48.9,33.1,54,30.06,10.0,Calm,Calm,-,N/A,,Clear,0,2013-10-16 13:53:00
7:53 AM,48.9,34.0,56,30.09,10.0,Calm,Calm,-,N/A,,Clear,0,2013-10-16 14:53:00
8:53 AM,57.0,32.0,39,30.10,10.0,Calm,Calm,-,N/A,,Clear,0,2013-10-16 15:53:00
9:53 AM,63.0,32.0,31,30.10,10.0,Calm,Calm,-,N/A,,Clear,0,2013-10-16 16:53:00
10:53 AM,70.0,32.0,25,30.09,10.0,WSW,3.5,-,N/A,,Clear,250,2013-10-16 17:53:00
11:53 AM,75.9,30.9,19,30.07,10.0,Variable,3.5,-,N/A,,Clear,0,2013-10-16 18:53:00
12:53 PM,81.0,30.9,16,30.06,10.0,ENE,6.9,16.1,N/A,,Clear,70,2013-10-16 19:53:00
1:53 PM,81.0,32.0,17,30.04,10.0,ENE,8.1,-,N/A,,Clear,60,2013-10-16 20:53:00
2:53 PM,82.9,32.0,16,30.02,10.0,NE,3.5,-,N/A,,Clear,50,2013-10-16 21:53:00
3:53 PM,82.9,32.0,16,30.01,10.0,Variable,4.6,-,N/A,,Clear,0,2013-10-16 22:53:00
4:53 PM,82.9,33.1,17,30.01,10.0,ENE,9.2,-,N/A,,Clear,70,2013-10-16 23:53:00
5:53 PM,80.1,34.0,19,30.02,10.0,NE,5.8,-,N/A,,Clear,40,2013-10-17 00:53:00
6:53 PM,75.9,35.1,23,30.03,10.0,Calm,Calm,-,N/A,,Clear,0,2013-10-17 01:53:00
7:53 PM,71.1,36.0,28,30.04,10.0,Calm,Calm,-,N/A,,Clear,0,2013-10-17 02:53:00
8:53 PM,66.9,34.0,30,30.05,10.0,Calm,Calm,-,N/A,,Clear,0,2013-10-17 03:53:00
9:53 PM,62.1,34.0,35,30.05,10.0,Calm,Calm,-,N/A,,Clear,0,2013-10-17 04:53:00
10:53 PM,59.0,33.1,38,30.05,10.0,Calm,Calm,-,N/A,,Clear,0,2013-10-17 05:53:00
11:53 PM,57.9,32.0,37,30.05,10.0,Calm,Calm,-,N/A,,Clear,0,2013-10-17 06:53:00